createdAt,value
2024-01-05T00:00:33.727Z,95935.44
2024-01-05T00:03:03.017Z,95936.47
2024-01-05T00:05:29.552Z,95934.00
2024-01-05T00:07:56.200Z,95923.19
2024-01-05T00:10:22.685Z,95928.88
2024-01-05T00:12:49.368Z,95923.88
2024-01-05T00:15:15.894Z,95920.13
2024-01-05T00:17:42.411Z,95913.31
2024-01-05T00:20:09.932Z,95917.97
2024-01-05T00:22:36.457Z,95920.56
2024-01-05T00:25:04.350Z,95924.19
2024-01-05T00:27:31.333Z,95924.78
2024-01-05T00:29:58.060Z,95917.75
2024-01-05T00:32:24.587Z,95907.72
2024-01-05T00:34:51.178Z,95910.59
2024-01-05T00:37:17.725Z,95919.78
2024-01-05T00:39:44.158Z,95914.91
2024-01-05T00:42:11.194Z,95921.03
2024-01-05T00:44:37.750Z,95915.13
2024-01-05T00:47:04.335Z,95924.56
2024-01-05T00:49:31.000Z,95917.72
2024-01-05T00:51:57.574Z,95919.09
2024-01-05T00:54:24.070Z,95913.41
2024-01-05T00:56:50.589Z,95926.25
2024-01-05T00:59:19.826Z,95925.69
2024-01-05T01:01:46.889Z,95920.69
2024-01-05T01:04:13.441Z,95929.63
2024-01-05T01:06:40.230Z,95921.22
2024-01-05T01:09:07.131Z,95911.56
2024-01-05T01:11:33.639Z,95921.22
2024-01-05T01:14:00.421Z,95914.88
2024-01-05T01:16:26.835Z,95918.59
2024-01-05T01:18:53.551Z,95898.66
2024-01-05T01:21:20.219Z,95907.59
2024-01-05T01:23:46.643Z,95916.47
2024-01-05T01:26:13.271Z,95913.25
2024-01-05T01:28:39.926Z,95911.25
2024-01-05T01:31:06.504Z,95902.13
2024-01-05T01:33:33.552Z,95896.91
2024-01-05T01:36:00.168Z,95893.06
2024-01-05T01:38:26.773Z,95889.03
2024-01-05T01:40:55.645Z,95887.41
2024-01-05T01:43:25.690Z,95886.41
2024-01-05T01:45:56.558Z,95870.59
2024-01-05T01:48:24.232Z,95866.97
2024-01-05T01:50:51.353Z,95856.97
2024-01-05T01:53:21.079Z,95852.66
2024-01-05T01:55:49.775Z,95852.91
2024-01-05T01:58:17.778Z,95845.19
2024-01-05T02:00:45.933Z,95849.81
2024-01-05T02:03:14.237Z,95842.22
2024-01-05T02:05:42.561Z,95832.94
2024-01-05T02:08:09.009Z,95833.38
2024-01-05T02:10:35.517Z,95821.81
2024-01-05T02:13:02.062Z,95821.59
2024-01-05T02:15:28.538Z,95831.66
2024-01-05T02:17:55.326Z,95829.53
2024-01-05T02:20:22.010Z,95834.28
2024-01-05T02:22:57.179Z,95834.84
2024-01-05T02:25:23.665Z,95831.34
2024-01-05T02:27:50.114Z,95821.59
2024-01-05T02:30:20.998Z,95820.44
2024-01-05T02:32:47.652Z,95821.91
2024-01-05T02:35:14.235Z,95818.72
2024-01-05T02:37:44.305Z,95818.19
2024-01-05T02:40:13.686Z,95824.41
2024-01-05T02:42:40.847Z,95817.03
2024-01-05T02:45:07.914Z,95816.91
2024-01-05T02:47:34.440Z,95812.38
2024-01-05T02:50:00.866Z,95809.78
2024-01-05T02:52:27.586Z,95797.75
2024-01-05T02:54:54.095Z,95797.75
2024-01-05T02:57:20.551Z,95789.59
2024-01-05T02:59:47.060Z,95793.53
2024-01-05T03:02:14.058Z,95791.06
2024-01-05T03:04:47.026Z,95793.09
2024-01-05T03:07:13.572Z,95800.03
2024-01-05T03:09:40.050Z,95801.16
2024-01-05T03:12:06.957Z,95801.50
2024-01-05T03:14:33.411Z,95789.22
2024-01-05T03:16:59.864Z,95791.84
2024-01-05T03:19:26.469Z,95790.28
2024-01-05T03:21:53.041Z,95779.84
2024-01-05T03:24:19.567Z,95777.78
2024-01-05T03:26:46.123Z,95770.84
2024-01-05T03:29:12.717Z,95763.13
2024-01-05T03:31:39.254Z,95762.47
2024-01-05T03:34:05.979Z,95759.28
2024-01-05T03:36:32.588Z,95769.41
2024-01-05T03:38:59.217Z,95764.63
2024-01-05T03:41:25.720Z,95761.47
2024-01-05T03:43:52.361Z,95749.44
2024-01-05T03:46:18.813Z,95754.66
2024-01-05T03:48:45.635Z,95744.22
2024-01-05T03:51:12.363Z,95750.56
2024-01-05T03:53:39.000Z,95761.91
2024-01-05T03:56:05.846Z,95756.69
2024-01-05T03:58:32.555Z,95756.25
2024-01-05T04:00:59.279Z,95747.38
2024-01-05T04:03:25.864Z,95758.84
2024-01-05T04:05:52.568Z,95765.09
2024-01-05T04:08:19.294Z,95766.09
2024-01-05T04:10:45.826Z,95754.75
2024-01-05T04:13:12.296Z,95757.47
2024-01-05T04:15:40.344Z,95758.06
2024-01-05T04:18:07.254Z,95747.63
2024-01-05T04:20:34.121Z,95739.69
2024-01-05T04:23:01.666Z,95735.38
2024-01-05T04:25:28.396Z,95735.81
2024-01-05T04:27:55.762Z,95738.44
2024-01-05T04:30:22.291Z,95725.38
2024-01-05T04:32:49.012Z,95722.88
2024-01-05T04:35:15.499Z,95721.75
2024-01-05T04:37:41.896Z,95722.78
2024-01-05T04:40:08.907Z,95728.00
2024-01-05T04:42:35.501Z,95723.47
2024-01-05T04:45:02.251Z,95718.03
2024-01-05T04:47:29.026Z,95718.25
2024-01-05T04:49:55.531Z,95728.47
2024-01-05T04:52:22.275Z,95734.47
2024-01-05T04:54:49.384Z,95713.72
2024-01-05T04:57:15.942Z,95707.91
2024-01-05T04:59:42.572Z,95715.75
2024-01-05T05:02:09.657Z,95703.03
2024-01-05T05:04:36.270Z,95703.59
2024-01-05T05:07:02.798Z,95696.56
2024-01-05T05:09:29.360Z,95699.19
2024-01-05T05:11:55.863Z,95694.97
2024-01-05T05:14:22.302Z,95695.47
2024-01-05T05:16:48.813Z,95709.50
2024-01-05T05:19:15.644Z,95704.75
2024-01-05T05:21:42.519Z,95689.34
2024-01-05T05:24:09.220Z,95687.97
2024-01-05T05:26:35.627Z,95690.47
2024-01-05T05:29:02.188Z,95693.41
2024-01-05T05:31:28.831Z,95696.00
2024-01-05T05:33:55.582Z,95690.25
2024-01-05T05:36:22.105Z,95697.97
2024-01-05T05:38:48.588Z,95693.41
2024-01-05T05:41:15.032Z,95688.19
2024-01-05T05:43:41.493Z,95693.41
2024-01-05T05:46:08.174Z,95696.59
2024-01-05T05:48:34.709Z,95696.59
2024-01-05T05:51:01.289Z,95698.88
2024-01-05T05:53:27.921Z,95699.31
2024-01-05T05:55:54.386Z,95707.25
2024-01-05T05:58:21.060Z,95705.22
2024-01-05T06:00:47.645Z,95708.41
2024-01-05T06:03:14.725Z,95709.03
2024-01-05T06:05:41.472Z,95703.28
2024-01-05T06:08:07.989Z,95699.97
2024-01-05T06:10:34.843Z,95698.94
2024-01-05T06:13:01.271Z,95694.28
2024-01-05T06:15:27.754Z,95703.13
2024-01-05T06:17:54.564Z,95695.28
2024-01-05T06:20:21.184Z,95702.09
2024-01-05T06:22:47.746Z,95711.66
2024-01-05T06:25:14.281Z,95698.59
2024-01-05T06:27:40.964Z,95702.69
2024-01-05T06:30:10.677Z,95702.88
2024-01-05T06:32:39.086Z,95705.88
2024-01-05T06:35:06.861Z,95706.31
2024-01-05T06:37:33.545Z,95718.34
2024-01-05T06:39:59.970Z,95712.19
2024-01-05T06:42:26.447Z,95712.53
2024-01-05T06:44:53.054Z,95704.00
2024-01-05T06:47:19.498Z,95706.16
2024-01-05T06:49:46.084Z,95703.56
2024-01-05T06:52:12.673Z,95702.88
2024-01-05T06:54:39.919Z,95707.41
2024-01-05T06:57:08.243Z,95714.78
2024-01-05T06:59:37.428Z,95718.53
2024-01-05T07:02:04.069Z,95708.44
2024-01-05T07:04:30.801Z,95716.25
2024-01-05T07:06:57.625Z,95716.72
2024-01-05T07:09:24.312Z,95713.09
2024-01-05T07:11:50.935Z,95713.91
2024-01-05T07:14:18.949Z,95711.50
2024-01-05T07:16:45.642Z,95702.66
2024-01-05T07:19:12.275Z,95699.34
2024-01-05T07:21:44.890Z,95707.41
2024-01-05T07:24:15.287Z,95705.81
2024-01-05T07:26:42.049Z,95707.41
2024-01-05T07:29:08.494Z,95701.25
2024-01-05T07:31:34.993Z,95706.03
2024-01-05T07:34:02.128Z,95710.34
2024-01-05T07:36:28.725Z,95709.28
2024-01-05T07:39:00.010Z,95711.66
2024-01-05T07:41:29.858Z,95694.97
2024-01-05T07:43:56.260Z,95698.47
2024-01-05T07:46:26.644Z,95702.59
2024-01-05T07:48:53.244Z,95696.88
2024-01-05T07:51:20.729Z,95699.59
2024-01-05T07:53:50.634Z,95707.53
2024-01-05T07:56:18.467Z,95703.44
2024-01-05T07:58:45.703Z,95707.47
2024-01-05T08:01:19.058Z,95705.66
2024-01-05T08:03:46.318Z,95701.75
2024-01-05T08:06:17.928Z,95699.88
2024-01-05T08:08:49.408Z,95700.97
2024-01-05T08:11:16.415Z,95696.84
2024-01-05T08:13:44.082Z,95702.72
2024-01-05T08:16:11.405Z,95700.41
2024-01-05T08:18:38.702Z,95711.28
2024-01-05T08:21:06.061Z,95707.00
2024-01-05T08:23:33.165Z,95707.00
2024-01-05T08:25:59.968Z,95708.25
2024-01-05T08:28:27.128Z,95704.59
2024-01-05T08:30:56.374Z,95706.19
2024-01-05T08:33:24.010Z,95704.59
2024-01-05T08:35:50.546Z,95701.38
2024-01-05T08:38:17.286Z,95701.84
2024-01-05T08:40:43.772Z,95699.94
2024-01-05T08:43:11.338Z,95699.53
2024-01-05T08:45:38.312Z,95695.75
2024-01-05T08:48:06.368Z,95696.25
2024-01-05T08:50:32.832Z,95701.28
2024-01-05T08:52:59.361Z,95700.97
2024-01-05T08:55:25.933Z,95703.28
2024-01-05T08:57:52.338Z,95707.47
2024-01-05T09:00:20.013Z,95708.59
2024-01-05T09:02:46.747Z,95708.19
2024-01-05T09:05:13.317Z,95713.66
2024-01-05T09:07:39.929Z,95705.38
2024-01-05T09:10:09.206Z,95712.50
2024-01-05T09:12:35.719Z,95713.00
2024-01-05T09:15:03.063Z,95710.00
2024-01-05T09:17:30.234Z,95719.00
2024-01-05T09:19:56.720Z,95727.22
2024-01-05T09:22:23.833Z,95731.94
2024-01-05T09:24:50.307Z,95724.78
2024-01-05T09:27:16.745Z,95727.75
2024-01-05T09:29:43.218Z,95732.91
2024-01-05T09:32:10.391Z,95720.03
2024-01-05T09:34:37.170Z,95726.22
2024-01-05T09:37:03.976Z,95723.78
2024-01-05T09:39:30.552Z,95724.78
2024-01-05T09:41:57.768Z,95732.03
2024-01-05T09:44:25.867Z,95737.09
2024-01-05T09:46:52.279Z,95735.75
2024-01-05T09:49:19.409Z,95743.06
2024-01-05T09:51:46.107Z,95740.72
2024-01-05T09:54:14.434Z,95742.81
2024-01-05T09:56:42.450Z,95739.16
2024-01-05T09:59:09.009Z,95744.41
2024-01-05T10:01:37.019Z,95736.91
2024-01-05T10:04:04.042Z,95735.75
2024-01-05T10:06:32.028Z,95734.16
2024-01-05T10:09:00.328Z,95742.94
2024-01-05T10:11:35.189Z,95733.66
2024-01-05T10:14:07.822Z,95726.22
2024-01-05T10:16:41.013Z,95729.97
2024-01-05T10:19:15.323Z,95725.34
2024-01-05T10:21:49.172Z,95728.41
2024-01-05T10:24:24.435Z,95723.03
2024-01-05T10:27:11.813Z,95726.16
2024-01-05T10:29:46.682Z,95720.53
2024-01-05T10:32:17.423Z,95710.63
2024-01-05T10:34:46.003Z,95706.53
2024-01-05T10:37:13.218Z,95698.50
2024-01-05T10:39:45.562Z,95698.94
2024-01-05T10:42:22.292Z,95698.06
2024-01-05T10:44:52.383Z,95692.91
2024-01-05T10:47:20.561Z,95692.94
2024-01-05T10:49:49.859Z,95703.53
2024-01-05T10:52:21.028Z,95714.59
2024-01-05T10:54:49.029Z,95723.56
2024-01-05T10:57:17.201Z,95714.09
2024-01-05T10:59:56.866Z,95710.41
2024-01-05T11:02:35.999Z,95714.91
2024-01-05T11:05:13.938Z,95717.78
2024-01-05T11:07:42.276Z,95717.78
2024-01-05T11:10:30.489Z,95711.50
2024-01-05T11:13:34.622Z,95712.03
2024-01-05T11:16:19.156Z,95710.75
2024-01-05T11:18:59.979Z,95714.69
2024-01-05T11:21:49.918Z,95709.41
2024-01-05T11:24:21.180Z,95706.00
2024-01-05T11:26:49.232Z,95708.38
2024-01-05T11:29:47.417Z,95701.53
2024-01-05T11:32:33.690Z,95700.47
2024-01-05T11:35:02.169Z,95698.34
2024-01-05T11:37:30.897Z,95689.94
2024-01-05T11:39:58.414Z,95683.09
2024-01-05T11:42:24.828Z,95674.69
2024-01-05T11:44:52.810Z,95668.91
2024-01-05T11:47:47.474Z,95671.00
2024-01-05T11:50:32.571Z,95669.41
2024-01-05T11:53:23.919Z,95676.25
2024-01-05T11:55:52.175Z,95678.34
2024-01-05T11:58:23.449Z,95682.06
2024-01-05T12:00:51.630Z,95681.78
2024-01-05T12:03:18.917Z,95681.50
2024-01-05T12:05:51.051Z,95682.56
2024-01-05T12:08:18.579Z,95675.97
2024-01-05T12:10:45.316Z,95670.44
2024-01-05T12:13:11.818Z,95674.13
2024-01-05T12:15:47.531Z,95667.81
2024-01-05T12:18:27.893Z,95673.63
2024-01-05T12:21:02.787Z,95666.22
2024-01-05T12:23:30.731Z,95669.94
2024-01-05T12:26:04.739Z,95665.72
2024-01-05T12:28:34.827Z,95666.00
2024-01-05T12:31:02.469Z,95664.94
2024-01-05T12:33:30.455Z,95664.69
2024-01-05T12:35:57.033Z,95655.75
2024-01-05T12:38:28.197Z,95661.53
2024-01-05T12:41:12.197Z,95653.91
2024-01-05T12:43:51.568Z,95639.97
2024-01-05T12:46:24.256Z,95635.25
2024-01-05T12:48:51.741Z,95622.06
2024-01-05T12:51:23.922Z,95615.72
2024-01-05T12:54:02.672Z,95610.44
2024-01-05T12:56:29.471Z,95615.16
2024-01-05T12:58:56.083Z,95614.13
2024-01-05T13:01:24.725Z,95625.69
2024-01-05T13:03:56.551Z,95616.47
2024-01-05T13:06:28.414Z,95617.78
2024-01-05T13:08:55.115Z,95617.47
2024-01-05T13:11:22.455Z,95609.84
2024-01-05T13:13:52.899Z,95608.56
2024-01-05T13:16:19.837Z,95609.84
2024-01-05T13:18:46.965Z,95618.31
2024-01-05T13:21:13.732Z,95623.31
2024-01-05T13:23:44.911Z,95625.94
2024-01-05T13:26:11.680Z,95633.28
2024-01-05T13:28:38.401Z,95635.16
2024-01-05T13:31:05.643Z,95637.78
2024-01-05T13:33:33.626Z,95644.66
2024-01-05T13:36:00.581Z,95642.56
2024-01-05T13:38:27.121Z,95660.50
2024-01-05T13:40:53.522Z,95651.00
2024-01-05T13:43:20.948Z,95656.25
2024-01-05T13:45:48.319Z,95655.22
2024-01-05T13:48:14.872Z,95660.75
2024-01-05T13:50:41.321Z,95661.00
2024-01-05T13:53:12.142Z,95657.31
2024-01-05T13:55:38.695Z,95666.28
2024-01-05T13:58:05.232Z,95669.44
2024-01-05T14:00:31.776Z,95666.28
2024-01-05T14:02:58.565Z,95668.38
2024-01-05T14:05:25.149Z,95664.69
2024-01-05T14:07:51.576Z,95665.22
2024-01-05T14:10:17.939Z,95674.16
2024-01-05T14:12:44.572Z,95663.34
2024-01-05T14:15:11.137Z,95672.31
2024-01-05T14:17:37.786Z,95678.38
2024-01-05T14:20:05.681Z,95682.31
2024-01-05T14:22:35.404Z,95677.34
2024-01-05T14:25:01.850Z,95676.28
2024-01-05T14:27:28.354Z,95678.94
2024-01-05T14:29:54.811Z,95683.16
2024-01-05T14:32:21.830Z,95680.78
2024-01-05T14:34:48.407Z,95685.25
2024-01-05T14:37:15.072Z,95676.81
2024-01-05T14:39:41.610Z,95682.06
2024-01-05T14:42:08.115Z,95677.88
2024-01-05T14:44:34.515Z,95676.31
2024-01-05T14:47:01.000Z,95676.81
2024-01-05T14:49:27.735Z,95681.03
2024-01-05T14:51:56.666Z,95687.88
2024-01-05T14:54:23.655Z,95685.75
2024-01-05T14:56:50.159Z,95688.38
2024-01-05T14:59:16.568Z,95682.56
2024-01-05T15:01:43.098Z,95688.38
2024-01-05T15:04:09.586Z,95688.34
2024-01-05T15:06:37.114Z,95683.03
2024-01-05T15:09:03.923Z,95684.38
2024-01-05T15:11:32.732Z,95683.03
2024-01-05T15:13:59.940Z,95680.94
2024-01-05T15:16:27.794Z,95677.28
2024-01-05T15:18:54.242Z,95682.53
2024-01-05T15:21:25.640Z,95682.00
2024-01-05T15:23:52.499Z,95675.69
2024-01-05T15:26:18.925Z,95671.47
2024-01-05T15:28:45.298Z,95676.72
2024-01-05T15:31:19.335Z,95674.09
2024-01-05T15:33:46.056Z,95677.28
2024-01-05T15:36:17.668Z,95672.53
2024-01-05T15:38:46.059Z,95664.63
2024-01-05T15:41:12.907Z,95663.59
2024-01-05T15:43:40.409Z,95674.13
2024-01-05T15:46:09.768Z,95667.31
2024-01-05T15:48:36.630Z,95667.84
2024-01-05T15:51:03.603Z,95664.16
2024-01-05T15:53:31.738Z,95668.13
2024-01-05T15:55:59.303Z,95671.50
2024-01-05T15:58:26.137Z,95664.16
2024-01-05T16:00:52.666Z,95664.16
2024-01-05T16:03:19.292Z,95664.69
2024-01-05T16:05:45.956Z,95672.03
2024-01-05T16:08:12.494Z,95669.41
2024-01-05T16:10:38.891Z,95666.00
2024-01-05T16:13:06.877Z,95668.63
2024-01-05T16:15:33.457Z,95666.50
2024-01-05T16:18:00.706Z,95657.78
2024-01-05T16:20:27.258Z,95669.91
2024-01-05T16:22:53.808Z,95661.75
2024-01-05T16:25:20.208Z,95669.91
2024-01-05T16:27:46.943Z,95664.13
2024-01-05T16:30:14.823Z,95665.72
2024-01-05T16:32:43.559Z,95665.72
2024-01-05T16:35:10.451Z,95666.78
2024-01-05T16:37:37.015Z,95664.94
2024-01-05T16:40:03.541Z,95672.59
2024-01-05T16:42:30.181Z,95669.97
2024-01-05T16:44:58.701Z,95667.88
2024-01-05T16:47:25.632Z,95678.38
2024-01-05T16:49:52.206Z,95674.69
2024-01-05T16:52:18.706Z,95681.50
2024-01-05T16:54:45.298Z,95677.81
2024-01-05T16:57:12.947Z,95680.41
2024-01-05T16:59:39.970Z,95680.38
2024-01-05T17:02:06.415Z,95676.72
2024-01-05T17:04:33.052Z,95670.41
2024-01-05T17:06:59.788Z,95669.28
2024-01-05T17:09:26.527Z,95666.13
2024-01-05T17:11:56.459Z,95681.38
2024-01-05T17:14:24.246Z,95672.41
2024-01-05T17:16:51.052Z,95675.03
2024-01-05T17:19:17.732Z,95677.13
2024-01-05T17:21:44.633Z,95686.06
2024-01-05T17:24:11.197Z,95688.19
2024-01-05T17:26:41.052Z,95699.25
2024-01-05T17:29:08.066Z,95686.69
2024-01-05T17:31:34.765Z,95683.03
2024-01-05T17:34:02.016Z,95690.44
2024-01-05T17:36:28.853Z,95694.91
2024-01-05T17:38:56.937Z,95695.16
2024-01-05T17:41:23.670Z,95696.75
2024-01-05T17:43:50.376Z,95700.41
2024-01-05T17:46:16.915Z,95694.09
2024-01-05T17:48:44.058Z,95693.53
2024-01-05T17:51:10.671Z,95708.25
2024-01-05T17:53:41.425Z,95710.31
2024-01-05T17:56:08.684Z,95703.97
2024-01-05T17:58:35.123Z,95706.59
2024-01-05T18:01:06.992Z,95702.88
2024-01-05T18:03:36.024Z,95713.34
2024-01-05T18:06:02.623Z,95712.28
2024-01-05T18:08:29.865Z,95709.09
2024-01-05T18:10:56.553Z,95708.59
2024-01-05T18:13:24.252Z,95708.59
2024-01-05T18:15:50.807Z,95716.72
2024-01-05T18:18:18.047Z,95720.13
2024-01-05T18:20:44.671Z,95712.78
2024-01-05T18:23:14.148Z,95716.75
2024-01-05T18:25:42.669Z,95711.50
2024-01-05T18:28:09.381Z,95712.56
2024-01-05T18:30:37.523Z,95718.31
2024-01-05T18:33:04.846Z,95715.69
2024-01-05T18:35:31.769Z,95714.13
2024-01-05T18:37:58.250Z,95712.75
2024-01-05T18:40:25.070Z,95713.28
2024-01-05T18:42:52.290Z,95715.34
2024-01-05T18:45:19.000Z,95717.97
2024-01-05T18:47:46.086Z,95721.13
2024-01-05T18:50:13.315Z,95722.19
2024-01-05T18:52:39.773Z,95733.16
2024-01-05T18:55:06.619Z,95725.19
2024-01-05T18:57:33.251Z,95737.25
2024-01-05T19:00:00.036Z,95736.66
2024-01-05T19:02:26.561Z,95734.59
2024-01-05T19:04:53.031Z,95736.94
2024-01-05T19:07:19.582Z,95747.19
2024-01-05T19:09:46.881Z,95750.84
2024-01-05T19:12:13.776Z,95740.88
2024-01-05T19:14:42.481Z,95750.84
2024-01-05T19:17:09.048Z,95752.94
2024-01-05T19:19:39.200Z,95750.03
2024-01-05T19:22:05.913Z,95755.59
2024-01-05T19:24:32.791Z,95748.19
2024-01-05T19:26:59.734Z,95759.47
2024-01-05T19:29:26.305Z,95757.88
2024-01-05T19:31:52.889Z,95758.13
2024-01-05T19:34:19.497Z,95756.28
2024-01-05T19:36:46.844Z,95762.53
2024-01-05T19:39:13.873Z,95752.28
2024-01-05T19:41:44.715Z,95755.44
2024-01-05T19:44:11.661Z,95760.69
2024-01-05T19:46:38.914Z,95763.06
2024-01-05T19:49:06.063Z,95757.00
2024-01-05T19:51:32.717Z,95761.47
2024-01-05T19:53:59.365Z,95761.19
2024-01-05T19:56:25.782Z,95760.34
2024-01-05T19:58:52.328Z,95769.50
2024-01-05T20:01:18.907Z,95763.97
2024-01-05T20:03:47.375Z,95757.13
2024-01-05T20:06:14.117Z,95765.81
2024-01-05T20:08:40.700Z,95772.59
2024-01-05T20:11:10.004Z,95769.69
2024-01-05T20:13:36.450Z,95766.84
2024-01-05T20:16:03.007Z,95762.88
2024-01-05T20:18:29.879Z,95758.13
2024-01-05T20:20:56.344Z,95751.28
2024-01-05T20:23:22.834Z,95754.16
2024-01-05T20:25:49.324Z,95749.44
2024-01-05T20:28:15.721Z,95751.75
2024-01-05T20:30:43.962Z,95747.25
2024-01-05T20:33:10.611Z,95734.41
2024-01-05T20:35:37.247Z,95740.91
2024-01-05T20:38:04.175Z,95738.25
2024-01-05T20:40:30.889Z,95737.16
2024-01-05T20:42:59.754Z,95742.88
2024-01-05T20:45:26.234Z,95741.81
2024-01-05T20:47:52.810Z,95748.09
2024-01-05T20:50:19.352Z,95742.78
2024-01-05T20:52:45.823Z,95750.09
2024-01-05T20:55:12.285Z,95743.78
2024-01-05T20:57:38.757Z,95752.19
2024-01-05T21:00:08.143Z,95748.28
2024-01-05T21:02:34.658Z,95751.50
2024-01-05T21:05:01.135Z,95748.66
2024-01-05T21:07:27.927Z,95747.84
2024-01-05T21:09:54.478Z,95752.06
2024-01-05T21:12:22.187Z,95759.13
2024-01-05T21:14:48.663Z,95753.34
2024-01-05T21:17:16.544Z,95755.16
2024-01-05T21:19:43.102Z,95751.50
2024-01-05T21:22:09.837Z,95754.38
2024-01-05T21:24:44.469Z,95750.72
2024-01-05T21:27:11.321Z,95744.38
2024-01-05T21:29:45.384Z,95757.53
2024-01-05T21:32:12.500Z,95751.78
2024-01-05T21:34:44.060Z,95757.13
2024-01-05T21:37:11.462Z,95759.75
2024-01-05T21:39:37.962Z,95749.72
2024-01-05T21:42:05.968Z,95757.03
2024-01-05T21:44:32.735Z,95751.50
2024-01-05T21:46:59.238Z,95749.13
2024-01-05T21:49:25.896Z,95753.88
2024-01-05T21:51:53.980Z,95756.56
2024-01-05T21:54:20.781Z,95755.47
2024-01-05T21:56:48.355Z,95752.53
2024-01-05T21:59:14.955Z,95752.50
2024-01-05T22:01:41.398Z,95753.22
2024-01-05T22:04:07.982Z,95753.22
2024-01-05T22:06:34.788Z,95757.44
2024-01-05T22:09:01.555Z,95762.75
2024-01-05T22:11:27.960Z,95758.06
2024-01-05T22:13:54.406Z,95762.78
2024-01-05T22:16:21.423Z,95759.94
2024-01-05T22:18:50.309Z,95763.38
2024-01-05T22:21:18.305Z,95753.97
2024-01-05T22:23:45.310Z,95760.81
2024-01-05T22:26:22.451Z,95759.22
2024-01-05T22:28:49.522Z,95760.81
2024-01-05T22:31:16.516Z,95762.94
2024-01-05T22:33:43.679Z,95759.22
2024-01-05T22:36:11.694Z,95755.56
2024-01-05T22:38:38.928Z,95755.56
2024-01-05T22:41:09.303Z,95760.31
2024-01-05T22:43:37.275Z,95758.72
2024-01-05T22:46:14.979Z,95764.47
2024-01-05T22:48:47.163Z,95766.53
2024-01-05T22:51:20.995Z,95766.53
2024-01-05T22:53:47.623Z,95760.22
2024-01-05T22:56:14.320Z,95762.28
2024-01-05T22:58:41.263Z,95772.28
2024-01-05T23:01:08.009Z,95763.88
2024-01-05T23:03:34.694Z,95759.94
2024-01-05T23:06:01.504Z,95756.47
2024-01-05T23:08:28.102Z,95752.81
2024-01-05T23:10:54.495Z,95758.06
2024-01-05T23:13:20.984Z,95755.09
2024-01-05T23:15:48.389Z,95755.84
2024-01-05T23:18:15.091Z,95752.19
2024-01-05T23:20:41.683Z,95751.69
2024-01-05T23:23:08.094Z,95742.75
2024-01-05T23:25:34.779Z,95747.94
2024-01-05T23:28:01.322Z,95755.25
2024-01-05T23:30:27.943Z,95750.00
2024-01-05T23:32:54.776Z,95756.84
2024-01-05T23:35:21.335Z,95769.38
2024-01-05T23:37:47.787Z,95767.81
2024-01-05T23:40:14.242Z,95761.47
2024-01-05T23:42:40.872Z,95767.50
2024-01-05T23:45:08.302Z,95771.94
2024-01-05T23:47:35.018Z,95775.03
2024-01-05T23:50:01.744Z,95773.81
2024-01-05T23:52:28.530Z,95791.06
2024-01-05T23:54:55.392Z,95792.88
2024-01-05T23:57:21.862Z,95793.13
2024-01-05T23:59:48.322Z,95792.03
